East Johnson, Vermont
Current Conditions -  °F | °C
As of 5:54 PM on Wednesday 22 Oct 2014 (Local Time) from KMVL Reporting Station
Broken Clouds Broken Clouds  
Wind Chill: 51°   Ceiling: 11000
Heat Index: 51°   Visibility: 10mi
Dew Point: 41°   Wind: 10mph
Humidity: 68%   Direction: 360°N
Pressure: 30.15"   Gusts: 17mph
Location:  44.6472°N, 72.6854°W
Report Text: KMVL 222154Z AUTO 36009G15KT 10SM SCT048 BKN110 11/05 A3015 RMK AO2 SLP214 T01060050
Loading
Personal Weather Stations






























Interactive Weather Map
Tropical Storm Tracking
New forecast layout! Learn more

10-Day Weather Forecast

Advertisements
Track Severe Weather on mobile